.
WxDataArchive / Data Records for 2011-03-22
2011-03-21 March 2011 2011-03-23

Data Records for Tuesday, 22 March 2011

Time	Temp	Chill	HIndex	Humid	Dewpt	 Wind 	HiWind	WindDir	Rain 	Barom 
-----	----	-----	------	-----	-----	------	------	-------	-----	----- 
00:00	44.2	44.2	44.2	81	38.7	1	2	22	0.00	30.063 
00:05	44.2	44.2	44.2	81	38.7	1	5	22	0.00	30.063 
00:10	44.2	44.2	44.2	81	38.7	0	2	135	0.00	30.063 
00:15	44.1	44.1	44.1	81	38.6	0	2	135	0.00	30.071 
00:20	43.9	43.9	43.9	81	38.5	0	3	22	0.00	30.071 
00:25	43.9	43.9	43.9	81	38.5	0	1	22	0.00	30.071 
00:30	43.9	43.9	43.9	81	38.5	0	2	22	0.00	30.083 
00:35	43.9	43.9	43.9	81	38.5	0	2	22	0.00	30.083 
00:40	43.9	43.9	43.9	81	38.5	0	2	22	0.00	30.083 
00:45	43.9	43.9	43.9	81	38.5	0	2	22	0.00	30.084 
00:50	43.9	43.9	43.9	80	38.1	0	3	45	0.00	30.084 
00:55	43.9	43.9	43.9	80	38.1	0	2	158	0.00	30.084 
01:00	43.8	43.8	43.8	80	38.0	1	3	90	0.00	30.084 
01:05	43.8	43.8	43.8	80	38.0	0	2	90	0.00	30.084 
01:10	43.6	43.6	43.6	80	37.8	0	1	68	0.00	30.084 
01:15	43.6	43.6	43.6	80	37.8	0	4	112	0.00	30.084 
01:20	43.6	43.6	43.6	80	37.8	0	3	112	0.00	30.084 
01:25	43.6	43.6	43.6	79	37.5	0	3	112	0.00	30.084 
01:30	43.6	43.6	43.6	79	37.5	0	3	112	0.00	30.082 
01:35	43.6	43.6	43.6	80	37.8	0	1	112	0.00	30.082 
01:40	43.6	43.6	43.6	81	38.2	0	2	112	0.00	30.082 
01:45	43.5	43.5	43.5	83	38.7	1	3	112	0.00	30.062 
01:50	43.3	43.3	43.3	84	38.8	0	2	112	0.00	30.062 
01:55	43.2	43.2	43.2	84	38.7	0	0	---	0.00	30.062 
02:00	43.2	43.2	43.2	85	39.0	0	1	112	0.01	30.094 
02:05	43.1	43.1	43.1	86	39.2	0	1	112	0.00	30.094 
02:10	43.1	43.1	43.1	87	39.5	1	2	112	0.01	30.094 
02:15	42.8	42.8	42.8	87	39.2	2	3	112	0.00	30.068 
02:20	42.8	42.8	42.8	87	39.2	0	2	112	0.00	30.068 
02:25	42.6	42.6	42.6	87	39.0	0	2	112	0.00	30.068 
02:30	42.6	42.6	42.6	88	39.3	1	2	112	0.00	30.072 
02:35	42.6	42.6	42.6	88	39.3	0	2	112	0.00	30.072 
02:40	42.5	42.5	42.5	88	39.2	0	2	112	0.00	30.072 
02:45	42.5	42.5	42.5	88	39.2	0	1	112	0.00	30.086 
02:50	42.5	42.5	42.5	88	39.2	0	1	112	0.00	30.086 
02:55	42.5	42.5	42.5	88	39.2	0	1	112	0.00	30.086 
03:00	42.5	42.5	42.5	88	39.2	0	1	112	0.00	30.079 
03:05	42.3	42.3	42.3	88	39.0	0	1	112	0.00	30.079 
03:10	42.3	42.3	42.3	88	39.0	0	0	---	0.00	30.079 
03:15	42.3	42.3	42.3	88	39.0	0	0	---	0.00	30.086 
03:20	42.3	42.3	42.3	88	39.0	0	2	112	0.00	30.086 
03:25	42.3	42.3	42.3	88	39.0	0	0	---	0.00	30.086 
03:30	42.3	42.3	42.3	88	39.0	0	1	112	0.00	30.100 
03:35	42.3	42.3	42.3	88	39.0	0	0	---	0.00	30.100 
03:40	42.3	42.3	42.3	88	39.0	0	0	---	0.00	30.100 
03:45	42.3	42.3	42.3	89	39.3	0	0	---	0.01	30.104 
03:50	42.5	42.5	42.5	89	39.5	0	0	---	0.00	30.104 
03:55	42.5	42.5	42.5	89	39.5	0	0	---	0.00	30.104 
04:00	42.3	42.3	42.3	89	39.3	0	0	---	0.01	30.086 
04:05	42.3	42.3	42.3	90	39.6	0	0	---	0.00	30.086 
04:10	42.2	42.2	42.2	90	39.5	0	1	112	0.01	30.086 
04:15	42.1	42.1	42.1	90	39.4	0	1	112	0.01	30.101 
04:20	42.1	42.1	42.1	90	39.4	0	0	---	0.01	30.101 
04:25	41.9	41.9	41.9	91	39.5	0	1	112	0.02	30.101 
04:30	41.9	41.9	41.9	91	39.5	0	1	112	0.01	30.074 
04:35	41.9	41.9	41.9	91	39.5	0	2	112	0.01	30.074 
04:40	41.9	41.9	41.9	92	39.7	0	1	112	0.00	30.074 
04:45	41.8	41.8	41.8	92	39.6	0	0	---	0.01	30.087 
04:50	41.8	41.8	41.8	92	39.6	0	0	---	0.01	30.087 
04:55	41.6	41.6	41.6	92	39.5	0	1	112	0.02	30.087 
05:00	41.6	41.6	41.6	92	39.5	0	1	112	0.01	30.080 
05:05	41.6	41.6	41.6	92	39.5	0	1	112	0.01	30.080 
05:10	41.6	41.6	41.6	92	39.5	1	3	112	0.01	30.080 
05:15	41.5	41.5	41.5	92	39.4	2	4	112	0.02	30.063 
05:20	41.5	41.5	41.5	92	39.4	2	5	112	0.03	30.063 
05:25	41.3	41.3	41.3	92	39.2	2	6	68	0.02	30.063 
05:30	41.2	41.2	41.2	93	39.3	1	2	68	0.02	30.064 
05:35	41.2	41.2	41.2	93	39.3	1	3	68	0.03	30.064 
05:40	41.2	41.2	41.2	93	39.3	0	2	68	0.01	30.064 
05:45	41.2	41.2	41.2	93	39.3	1	2	68	0.00	30.065 
05:50	41.2	41.2	41.2	93	39.3	1	2	68	0.00	30.065 
05:55	41.2	41.2	41.2	93	39.3	1	2	68	0.00	30.065 
06:00	41.1	41.1	41.1	93	39.2	0	1	68	0.01	30.070 
06:05	41.1	41.1	41.1	93	39.2	0	1	68	0.00	30.070 
06:10	41.1	41.1	41.1	93	39.2	0	1	68	0.01	30.070 
06:15	41.1	41.1	41.1	93	39.2	0	0	---	0.01	30.087 
06:20	41.1	41.1	41.1	93	39.2	0	1	68	0.01	30.087 
06:25	41.1	41.1	41.1	94	39.5	0	1	68	0.00	30.087 
06:30	41.1	41.1	41.1	94	39.5	0	2	68	0.01	30.076 
06:35	41.1	41.1	41.1	94	39.5	1	2	68	0.00	30.076 
06:40	41.1	41.1	41.1	94	39.5	2	3	68	0.00	30.076 
06:45	41.1	41.1	41.1	94	39.5	2	4	68	0.00	30.054 
06:50	41.1	41.1	41.1	94	39.5	2	4	68	0.00	30.054 
06:55	41.1	41.1	41.1	94	39.5	2	5	90	0.00	30.054 
07:00	40.9	40.9	40.9	94	39.3	2	4	90	0.00	30.047 
07:05	40.9	40.9	40.9	93	39.0	2	6	90	0.00	30.047 
07:10	40.9	40.9	40.9	93	39.0	2	4	90	0.00	30.047 
07:15	40.9	40.9	40.9	93	39.0	2	4	90	0.00	30.047 
07:20	40.9	40.9	40.9	93	39.0	1	3	90	0.00	30.047 
07:25	40.9	40.9	40.9	93	39.0	2	4	90	0.00	30.047 
07:30	40.9	40.9	40.9	93	39.0	2	5	90	0.00	30.040 
07:35	40.9	40.9	40.9	93	39.0	2	5	90	0.00	30.040 
07:40	40.8	40.8	40.8	93	38.9	2	7	90	0.00	30.040 
07:45	40.8	40.8	40.8	93	38.9	2	5	90	0.00	30.040 
07:50	40.8	40.8	40.8	93	38.9	2	4	90	0.00	30.040 
07:55	40.8	40.8	40.8	93	38.9	1	3	90	0.00	30.040 
08:00	40.9	40.9	40.9	93	39.0	1	4	90	0.00	30.053 
08:05	40.9	40.9	40.9	93	39.0	1	5	90	0.00	30.053 
08:10	40.9	40.9	40.9	93	39.0	1	6	90	0.00	30.053 
08:15	41.1	41.1	41.1	93	39.2	0	1	90	0.00	30.067 
08:20	41.1	41.1	41.1	93	39.2	2	5	90	0.00	30.067 
08:25	41.1	41.1	41.1	93	39.2	2	4	90	0.00	30.067 
08:30	41.1	41.1	41.1	93	39.2	1	5	90	0.01	30.070 
08:35	41.1	41.1	41.1	92	39.0	2	6	90	0.00	30.070 
08:40	41.2	41.2	41.2	92	39.1	3	9	90	0.00	30.070 
08:45	41.1	41.1	41.1	92	39.0	3	7	112	0.00	30.054 
08:50	41.2	41.2	41.2	92	39.1	3	7	112	0.00	30.054 
08:55	41.2	38.7	41.2	92	39.1	4	10	90	0.00	30.054 
09:00	41.2	38.7	41.2	92	39.1	4	8	90	0.00	30.044 
09:05	41.2	41.2	41.2	92	39.1	3	9	90	0.00	30.044 
09:10	41.2	41.2	41.2	92	39.1	3	11	112	0.00	30.044 
09:15	41.3	41.3	41.3	92	39.2	3	7	112	0.00	30.051 
09:20	41.3	38.8	41.3	91	38.9	4	9	90	0.00	30.051 
09:25	41.5	41.5	41.5	91	39.1	3	13	112	0.00	30.051 
09:30	41.5	41.5	41.5	91	39.1	2	7	90	0.00	30.057 
09:35	41.6	41.6	41.6	91	39.2	3	7	112	0.00	30.057 
09:40	41.6	37.7	41.6	90	38.9	6	10	90	0.00	30.057 
09:45	41.8	41.8	41.8	90	39.1	3	10	112	0.00	30.051 
09:50	41.8	38.6	41.8	89	38.8	5	11	90	0.00	30.051 
09:55	41.9	41.9	41.9	89	38.9	3	10	90	0.00	30.051 
10:00	41.9	38.7	41.9	88	38.6	5	11	90	0.00	30.055 
10:05	41.9	38.7	41.9	88	38.6	5	11	90	0.00	30.055 
10:10	41.9	38.7	41.9	88	38.6	5	10	90	0.00	30.055 
10:15	41.9	38.7	41.9	88	38.6	5	10	90	0.00	30.049 
10:20	42.1	39.7	42.1	89	39.1	4	9	90	0.00	30.049 
10:25	42.1	39.7	42.1	89	39.1	4	11	90	0.00	30.049 
10:30	42.1	39.7	42.1	89	39.1	4	12	112	0.00	30.051 
10:35	42.1	39.7	42.1	89	39.1	4	10	112	0.00	30.051 
10:40	42.1	39.7	42.1	90	39.4	4	12	90	0.00	30.051 
10:45	42.2	39.9	42.2	90	39.5	4	11	90	0.00	30.055 
10:50	42.3	42.3	42.3	90	39.6	3	10	112	0.00	30.055 
10:55	42.3	40.0	42.3	90	39.6	4	9	90	0.00	30.055 
11:00	42.3	40.0	42.3	90	39.6	4	7	112	0.00	30.055 
11:05	42.2	39.9	42.2	90	39.5	4	7	90	0.00	30.055 
11:10	42.2	39.9	42.2	90	39.5	4	8	112	0.00	30.055 
11:15	42.2	39.1	42.2	90	39.5	5	11	90	0.02	30.055 
11:20	42.1	38.9	42.1	90	39.4	5	14	112	0.02	30.055 
11:25	41.9	38.0	41.9	91	39.5	6	12	112	0.01	30.055 
11:30	41.9	39.5	41.9	92	39.7	4	9	90	0.00	30.037 
11:35	41.9	38.7	41.9	92	39.7	5	15	112	0.01	30.037 
11:40	41.9	38.7	41.9	92	39.7	5	14	90	0.00	30.037 
11:45	41.9	38.7	41.9	92	39.7	5	15	112	0.00	30.035 
11:50	41.9	38.7	41.9	92	39.7	5	12	90	0.00	30.035 
11:55	41.9	38.7	41.9	92	39.7	5	10	90	0.00	30.035 
12:00	42.1	39.7	42.1	92	39.9	4	10	90	0.00	30.048 
12:05	41.9	38.0	41.9	91	39.5	6	14	90	0.00	30.048 
12:10	41.9	38.0	41.9	91	39.5	6	12	112	0.00	30.048 
12:15	42.1	38.3	42.1	91	39.7	6	15	90	0.00	30.031 
12:20	42.1	38.9	42.1	91	39.7	5	11	112	0.00	30.031 
12:25	42.1	38.3	42.1	91	39.7	6	13	90	0.00	30.031 
12:30	42.1	38.3	42.1	90	39.4	6	13	112	0.00	30.033 
12:35	42.2	39.1	42.2	90	39.5	5	11	90	0.00	30.033 
12:40	42.2	39.9	42.2	90	39.5	4	10	90	0.00	30.033 
12:45	42.2	39.1	42.2	89	39.2	5	15	90	0.00	30.020 
12:50	42.2	37.8	42.2	90	39.5	7	12	90	0.01	30.020 
12:55	42.1	38.3	42.1	90	39.4	6	12	112	0.01	30.020 
13:00	41.9	38.0	41.9	91	39.5	6	14	90	0.00	30.005 
13:05	41.9	38.7	41.9	91	39.5	5	13	112	0.00	30.005 
13:10	41.9	38.0	41.9	91	39.5	6	11	112	0.00	30.005 
13:15	41.9	38.0	41.9	92	39.7	6	14	112	0.00	30.003 
13:20	41.9	38.0	41.9	92	39.7	6	13	112	0.00	30.003 
13:25	41.9	39.5	41.9	92	39.7	4	10	90	0.00	30.003 
13:30	41.9	38.0	41.9	92	39.7	6	16	90	0.00	29.989 
13:35	42.1	38.3	42.1	91	39.7	6	15	112	0.00	29.989 
13:40	42.2	37.8	42.2	91	39.8	7	13	112	0.00	29.989 
13:45	42.3	37.9	42.3	91	39.9	7	13	112	0.00	29.971 
13:50	42.8	40.6	42.8	91	40.4	4	10	112	0.00	29.971 
13:55	42.5	37.6	42.5	90	39.8	8	15	112	0.00	29.971 
14:00	42.3	37.4	42.3	89	39.3	8	14	90	0.00	29.980 
14:05	42.3	37.9	42.3	90	39.6	7	13	90	0.00	29.980 
14:10	42.3	39.2	42.3	90	39.6	5	12	112	0.00	29.980 
14:15	42.3	40.0	42.3	90	39.6	4	10	90	0.00	29.973 
14:20	42.3	39.2	42.3	89	39.3	5	14	90	0.00	29.973 
14:25	42.2	38.4	42.2	89	39.2	6	11	90	0.00	29.973 
14:30	42.1	37.1	42.1	89	39.1	8	16	112	0.00	29.957 
14:35	41.9	38.0	41.9	89	38.9	6	14	90	0.00	29.957 
14:40	41.9	38.7	41.9	89	38.9	5	16	112	0.00	29.957 
14:45	41.8	37.3	41.8	89	38.8	7	15	90	0.00	29.945 
14:50	41.8	37.3	41.8	89	38.8	7	13	90	0.00	29.945 
14:55	41.6	37.1	41.6	89	38.6	7	16	112	0.00	29.945 
15:00	41.6	37.1	41.6	89	38.6	7	16	112	0.00	29.935 
15:05	41.8	37.9	41.8	89	38.8	6	14	90	0.00	29.935 
15:10	41.6	37.1	41.6	89	38.6	7	14	90	0.00	29.935 
15:15	41.6	37.1	41.6	89	38.6	7	15	112	0.00	29.926 
15:20	41.6	37.7	41.6	89	38.6	6	16	112	0.00	29.926 
15:25	41.5	36.4	41.5	88	38.2	8	16	112	0.00	29.926 
15:30	41.3	36.2	41.3	88	38.0	8	18	112	0.00	29.925 
15:35	41.2	37.2	41.2	87	37.6	6	15	90	0.00	29.925 
15:40	41.2	37.2	41.2	87	37.6	6	13	112	0.00	29.925 
15:45	41.3	36.7	41.3	87	37.7	7	12	112	0.00	29.919 
15:50	41.3	37.3	41.3	87	37.7	6	15	112	0.00	29.919 
15:55	41.2	36.0	41.2	86	37.3	8	15	112	0.00	29.919 
16:00	41.3	37.3	41.3	86	37.4	6	13	112	0.00	29.923 
16:05	41.6	37.1	41.6	86	37.7	7	15	90	0.00	29.923 
16:10	41.3	36.2	41.3	85	37.1	8	18	90	0.00	29.923 
16:15	41.5	37.5	41.5	85	37.3	6	14	112	0.00	29.919 
16:20	41.5	36.9	41.5	85	37.3	7	15	112	0.00	29.919 
16:25	41.6	36.5	41.6	84	37.1	8	15	112	0.00	29.919 
16:30	41.6	36.5	41.6	83	36.8	8	14	90	0.00	29.910 
16:35	41.9	38.7	41.9	84	37.4	5	11	112	0.00	29.910 
16:40	42.2	39.9	42.2	85	38.0	4	11	112	0.00	29.910 
16:45	42.1	38.9	42.1	85	37.9	5	14	112	0.00	29.901 
16:50	41.9	37.4	41.9	84	37.4	7	13	90	0.00	29.901 
16:55	41.8	37.9	41.8	84	37.3	6	13	90	0.00	29.901 
17:00	41.6	36.5	41.6	84	37.1	8	16	90	0.00	29.894 
17:05	41.5	36.9	41.5	84	37.0	7	20	112	0.00	29.894 
17:10	41.2	36.0	41.2	84	36.7	8	18	90	0.00	29.894 
17:15	41.1	35.9	41.1	84	36.6	8	17	112	0.00	29.897 
17:20	41.1	36.5	41.1	84	36.6	7	16	90	0.00	29.897 
17:25	40.9	35.2	40.9	84	36.4	9	15	90	0.00	29.897 
17:30	40.9	36.2	40.9	84	36.4	7	16	112	0.00	29.896 
17:35	40.9	36.8	40.9	84	36.4	6	14	112	0.00	29.896 
17:40	40.9	36.2	40.9	84	36.4	7	14	90	0.00	29.896 
17:45	40.8	35.6	40.8	84	36.3	8	14	112	0.00	29.898 
17:50	40.8	35.6	40.8	84	36.3	8	15	90	0.00	29.898 
17:55	40.8	35.6	40.8	84	36.3	8	16	112	0.00	29.898 
18:00	40.8	36.7	40.8	84	36.3	6	13	112	0.00	29.895 
18:05	40.8	36.1	40.8	84	36.3	7	16	90	0.00	29.895 
18:10	40.8	36.1	40.8	83	36.0	7	14	90	0.00	29.895 
18:15	40.8	36.1	40.8	83	36.0	7	16	112	0.00	29.897 
18:20	40.8	37.4	40.8	84	36.3	5	13	112	0.00	29.897 
18:25	40.6	36.5	40.6	83	35.8	6	13	112	0.00	29.897 
18:30	40.5	36.4	40.5	83	35.8	6	16	112	0.00	29.896 
18:35	40.3	35.5	40.3	83	35.6	7	19	112	0.00	29.896 
18:40	40.2	36.0	40.2	82	35.2	6	16	112	0.00	29.896 
18:45	40.1	36.6	40.1	83	35.4	5	12	112	0.00	29.894 
18:50	40.1	36.6	40.1	83	35.4	5	15	112	0.00	29.894 
18:55	39.8	35.5	39.8	83	35.1	6	21	112	0.00	29.894 
19:00	39.5	35.9	39.5	83	34.8	5	16	112	0.00	29.891 
19:05	39.3	33.7	39.3	82	34.3	8	18	112	0.00	29.891 
19:10	39.2	34.8	39.2	82	34.2	6	12	90	0.00	29.891 
19:15	39.2	34.2	39.2	82	34.2	7	15	90	0.00	29.896 
19:20	39.2	36.4	39.2	83	34.5	4	14	112	0.00	29.896 
19:25	39.1	34.7	39.1	83	34.4	6	17	112	0.00	29.896 
19:30	38.8	33.7	38.8	83	34.1	7	13	112	0.00	29.885 
19:35	38.6	33.5	38.6	81	33.3	7	16	112	0.00	29.885 
19:40	38.5	32.8	38.5	81	33.2	8	16	112	0.00	29.885 
19:45	38.3	33.1	38.3	80	32.7	7	18	112	0.00	29.886 
19:50	38.3	32.5	38.3	80	32.7	8	16	112	0.00	29.886 
19:55	38.2	33.0	38.2	80	32.6	7	16	112	0.00	29.886 
20:00	38.0	32.2	38.0	80	32.4	8	18	112	0.00	29.884 
20:05	38.0	32.7	38.0	80	32.4	7	16	112	0.00	29.884 
20:10	38.0	32.7	38.0	81	32.7	7	16	112	0.00	29.884 
20:15	37.9	34.0	37.9	81	32.6	5	13	90	0.00	29.866 
20:20	37.9	33.3	37.9	81	32.6	6	15	112	0.00	29.866 
20:25	37.9	33.3	37.9	81	32.6	6	15	112	0.00	29.866 
20:30	37.8	33.1	37.8	81	32.5	6	15	112	0.00	29.856 
20:35	37.8	31.4	37.8	81	32.5	9	15	112	0.00	29.856 
20:40	37.8	32.5	37.8	81	32.5	7	18	112	0.00	29.856 
20:45	37.8	32.5	37.8	81	32.5	7	15	90	0.00	29.857 
20:50	37.8	31.9	37.8	80	32.2	8	20	112	0.00	29.857 
20:55	37.6	32.2	37.6	80	32.0	7	14	112	0.00	29.857 
21:00	37.6	32.2	37.6	81	32.3	7	14	112	0.00	29.861 
21:05	37.5	31.5	37.5	80	31.9	8	15	90	0.00	29.861 
21:10	37.5	32.8	37.5	81	32.2	6	16	112	0.00	29.861 
21:15	37.3	31.9	37.3	81	32.0	7	17	90	0.00	29.868 
21:20	37.3	32.5	37.3	81	32.0	6	13	112	0.00	29.868 
21:25	37.2	31.8	37.2	81	31.9	7	17	112	0.00	29.868 
21:30	37.2	32.4	37.2	82	32.2	6	12	112	0.00	29.853 
21:35	37.0	32.2	37.0	82	32.0	6	13	112	0.00	29.853 
21:40	37.0	30.4	37.0	82	32.0	9	15	112	0.00	29.853 
21:45	37.0	32.2	37.0	82	32.0	6	13	112	0.00	29.853 
21:50	36.9	31.4	36.9	83	32.2	7	12	112	0.00	29.853 
21:55	36.8	31.3	36.8	84	32.4	7	15	90	0.00	29.853 
22:00	36.6	31.0	36.6	84	32.2	7	15	112	0.00	29.836 
22:05	36.6	30.4	36.6	85	32.5	8	14	112	0.00	29.836 
22:10	36.6	32.5	36.6	86	32.8	5	12	90	0.00	29.836 
22:15	36.6	32.5	36.6	87	33.1	5	13	90	0.00	29.836 
22:20	36.5	31.6	36.5	88	33.3	6	17	90	0.01	29.836 
22:25	36.2	32.0	36.2	89	33.3	5	12	112	0.01	29.836 
22:30	36.2	30.0	36.2	89	33.3	8	17	112	0.00	29.804 
22:35	36.0	30.3	36.0	90	33.4	7	16	112	0.00	29.804 
22:40	36.0	31.8	36.0	90	33.4	5	12	90	0.01	29.804 
22:45	36.0	30.3	36.0	90	33.4	7	15	90	0.00	29.820 
22:50	36.2	31.2	36.2	90	33.6	6	11	90	0.00	29.820 
22:55	36.2	31.2	36.2	90	33.6	6	14	112	0.00	29.820 
23:00	36.2	32.9	36.2	91	33.8	4	11	90	0.00	29.829 
23:05	36.2	31.2	36.2	91	33.8	6	11	112	0.00	29.829 
23:10	36.3	31.4	36.3	91	33.9	6	11	90	0.00	29.829 
23:15	36.3	32.1	36.3	91	33.9	5	9	112	0.00	29.814 
23:20	36.3	33.0	36.3	91	33.9	4	12	90	0.00	29.814 
23:25	36.3	32.1	36.3	91	33.9	5	14	112	0.00	29.814 
23:30	36.2	31.2	36.2	92	34.1	6	13	112	0.01	29.787 
23:35	36.2	31.2	36.2	92	34.1	6	16	112	0.00	29.787 
23:40	36.3	31.4	36.3	92	34.2	6	15	112	0.00	29.787 
23:45	36.3	30.1	36.3	92	34.2	8	16	90	0.00	29.760 
23:50	36.3	30.7	36.3	92	34.2	7	13	112	0.00	29.760 
23:55	36.3	30.7	36.3	92	34.2	7	17	112	0.00	29.760 

CoCoRaHS
IN-AL-39
A2 Web Hosting
Creative Commons License
GoDaddy
search engine by freefind advanced

loaded 2018-11-15 17:44:07 • last modified 2010-11-18 10:43:29
Privacy PolicyDisclaimer
• wx.awcolley.com is powered by PmWiki v.2002016 •
• all content (unless otherwise noted) © 2018 A W Colley